sensor_id;sensor_type;location;lat;lon;timestamp;P1;durP1;ratioP1;P2;durP2;ratioP2
14021;SDS011;7086;48.116;11.580;2022-08-25T00:02:13;3.55;;;3.35;;
14021;SDS011;7086;48.116;11.580;2022-08-25T00:04:44;3.03;;;2.92;;
14021;SDS011;7086;48.116;11.580;2022-08-25T00:07:11;2.88;;;2.78;;
14021;SDS011;7086;48.116;11.580;2022-08-25T00:09:39;3.35;;;3.15;;
14021;SDS011;7086;48.116;11.580;2022-08-25T00:12:09;3.85;;;3.50;;
14021;SDS011;7086;48.116;11.580;2022-08-25T00:14:37;3.67;;;3.10;;
14021;SDS011;7086;48.116;11.580;2022-08-25T00:17:07;3.35;;;3.15;;
14021;SDS011;7086;48.116;11.580;2022-08-25T00:19:36;3.40;;;3.20;;
14021;SDS011;7086;48.116;11.580;2022-08-25T00:22:12;4.00;;;3.70;;
14021;SDS011;7086;48.116;11.580;2022-08-25T00:24:41;3.42;;;3.22;;
14021;SDS011;7086;48.116;11.580;2022-08-25T00:27:09;3.72;;;3.42;;
14021;SDS011;7086;48.116;11.580;2022-08-25T00:29:37;3.72;;;3.42;;
14021;SDS011;7086;48.116;11.580;2022-08-25T00:32:05;2.95;;;2.72;;
14021;SDS011;7086;48.116;11.580;2022-08-25T00:34:35;3.67;;;3.47;;
14021;SDS011;7086;48.116;11.580;2022-08-25T00:37:04;3.60;;;3.40;;
14021;SDS011;7086;48.116;11.580;2022-08-25T00:39:36;4.30;;;4.10;;
14021;SDS011;7086;48.116;11.580;2022-08-25T00:42:05;3.55;;;3.30;;
14021;SDS011;7086;48.116;11.580;2022-08-25T00:44:35;6.93;;;3.97;;
14021;SDS011;7086;48.116;11.580;2022-08-25T00:47:04;4.32;;;4.03;;
14021;SDS011;7086;48.116;11.580;2022-08-25T00:49:49;3.88;;;3.67;;
14021;SDS011;7086;48.116;11.580;2022-08-25T00:52:29;3.70;;;3.50;;
14021;SDS011;7086;48.116;11.580;2022-08-25T00:55:06;3.83;;;3.47;;
14021;SDS011;7086;48.116;11.580;2022-08-25T00:58:03;4.15;;;3.92;;
14021;SDS011;7086;48.116;11.580;2022-08-25T01:00:49;5.18;;;3.85;;
14021;SDS011;7086;48.116;11.580;2022-08-25T01:03:22;4.35;;;3.97;;
14021;SDS011;7086;48.116;11.580;2022-08-25T01:05:57;4.07;;;3.78;;
14021;SDS011;7086;48.116;11.580;2022-08-25T01:08:31;4.43;;;4.13;;
14021;SDS011;7086;48.116;11.580;2022-08-25T01:11:05;3.83;;;3.60;;
14021;SDS011;7086;48.116;11.580;2022-08-25T01:13:38;5.78;;;4.53;;
14021;SDS011;7086;48.116;11.580;2022-08-25T01:16:11;4.13;;;3.72;;
14021;SDS011;7086;48.116;11.580;2022-08-25T01:18:46;4.70;;;4.30;;
14021;SDS011;7086;48.116;11.580;2022-08-25T01:24:15;4.72;;;4.43;;
14021;SDS011;7086;48.116;11.580;2022-08-25T01:26:55;5.20;;;4.70;;
14021;SDS011;7086;48.116;11.580;2022-08-25T01:29:37;4.63;;;4.20;;
14021;SDS011;7086;48.116;11.580;2022-08-25T01:32:08;5.03;;;4.63;;
14021;SDS011;7086;48.116;11.580;2022-08-25T01:34:40;5.38;;;4.90;;
14021;SDS011;7086;48.116;11.580;2022-08-25T01:37:13;4.78;;;4.47;;
14021;SDS011;7086;48.116;11.580;2022-08-25T01:39:43;5.38;;;4.97;;
14021;SDS011;7086;48.116;11.580;2022-08-25T01:42:18;5.88;;;5.38;;
14021;SDS011;7086;48.116;11.580;2022-08-25T01:45:08;5.45;;;4.93;;
14021;SDS011;7086;48.116;11.580;2022-08-25T01:47:37;5.68;;;5.20;;
14021;SDS011;7086;48.116;11.580;2022-08-25T01:50:11;5.63;;;5.13;;
14021;SDS011;7086;48.116;11.580;2022-08-25T01:52:48;5.95;;;5.43;;
14021;SDS011;7086;48.116;11.580;2022-08-25T01:55:22;5.90;;;5.40;;
14021;SDS011;7086;48.116;11.580;2022-08-25T01:57:51;6.75;;;5.63;;
14021;SDS011;7086;48.116;11.580;2022-08-25T02:00:21;5.70;;;5.30;;
14021;SDS011;7086;48.116;11.580;2022-08-25T02:02:51;5.95;;;5.53;;
14021;SDS011;7086;48.116;11.580;2022-08-25T02:05:21;6.05;;;5.55;;
14021;SDS011;7086;48.116;11.580;2022-08-25T02:07:54;6.38;;;5.88;;
14021;SDS011;7086;48.116;11.580;2022-08-25T02:10:22;6.28;;;4.93;;
14021;SDS011;7086;48.116;11.580;2022-08-25T02:13:06;6.93;;;6.30;;
14021;SDS011;7086;48.116;11.580;2022-08-25T02:15:48;6.53;;;5.93;;
14021;SDS011;7086;48.116;11.580;2022-08-25T02:18:20;7.15;;;6.03;;
14021;SDS011;7086;48.116;11.580;2022-08-25T02:20:48;5.65;;;5.20;;
14021;SDS011;7086;48.116;11.580;2022-08-25T02:23:26;6.68;;;6.03;;
14021;SDS011;7086;48.116;11.580;2022-08-25T02:25:55;6.80;;;6.20;;
14021;SDS011;7086;48.116;11.580;2022-08-25T02:28:25;7.03;;;6.50;;
14021;SDS011;7086;48.116;11.580;2022-08-25T02:31:00;8.52;;;6.22;;
14021;SDS011;7086;48.116;11.580;2022-08-25T02:33:37;7.45;;;6.53;;
14021;SDS011;7086;48.116;11.580;2022-08-25T02:36:27;6.57;;;6.05;;
14021;SDS011;7086;48.116;11.580;2022-08-25T02:38:58;7.15;;;6.55;;
14021;SDS011;7086;48.116;11.580;2022-08-25T02:41:28;7.25;;;6.57;;
14021;SDS011;7086;48.116;11.580;2022-08-25T02:43:57;7.13;;;6.47;;
14021;SDS011;7086;48.116;11.580;2022-08-25T02:46:27;7.05;;;6.47;;
14021;SDS011;7086;48.116;11.580;2022-08-25T02:48:55;7.35;;;6.75;;
14021;SDS011;7086;48.116;11.580;2022-08-25T03:01:29;10.45;;;8.18;;
14021;SDS011;7086;48.116;11.580;2022-08-25T03:03:58;8.15;;;7.45;;
14021;SDS011;7086;48.116;11.580;2022-08-25T03:06:27;7.55;;;6.55;;
14021;SDS011;7086;48.116;11.580;2022-08-25T03:09:05;8.50;;;7.32;;
14021;SDS011;7086;48.116;11.580;2022-08-25T03:11:47;8.63;;;7.85;;
14021;SDS011;7086;48.116;11.580;2022-08-25T03:14:24;9.10;;;8.35;;
14021;SDS011;7086;48.116;11.580;2022-08-25T03:17:08;8.90;;;7.55;;
14021;SDS011;7086;48.116;11.580;2022-08-25T03:19:41;7.78;;;6.80;;
14021;SDS011;7086;48.116;11.580;2022-08-25T03:22:10;7.05;;;6.45;;
14021;SDS011;7086;48.116;11.580;2022-08-25T03:24:39;7.47;;;6.80;;
14021;SDS011;7086;48.116;11.580;2022-08-25T03:27:37;10.13;;;8.00;;
14021;SDS011;7086;48.116;11.580;2022-08-25T03:30:05;14.75;;;7.15;;
14021;SDS011;7086;48.116;11.580;2022-08-25T03:32:38;7.15;;;6.43;;
14021;SDS011;7086;48.116;11.580;2022-08-25T03:35:10;7.00;;;6.38;;
14021;SDS011;7086;48.116;11.580;2022-08-25T03:37:54;9.18;;;6.78;;
14021;SDS011;7086;48.116;11.580;2022-08-25T03:40:24;8.23;;;7.45;;
14021;SDS011;7086;48.116;11.580;2022-08-25T03:42:52;7.63;;;6.93;;
14021;SDS011;7086;48.116;11.580;2022-08-25T03:45:34;10.10;;;7.30;;
14021;SDS011;7086;48.116;11.580;2022-08-25T03:48:10;7.47;;;6.03;;
14021;SDS011;7086;48.116;11.580;2022-08-25T03:50:42;7.60;;;6.82;;
14021;SDS011;7086;48.116;11.580;2022-08-25T03:53:12;7.22;;;6.53;;
14021;SDS011;7086;48.116;11.580;2022-08-25T03:55:42;7.35;;;6.75;;
14021;SDS011;7086;48.116;11.580;2022-08-25T03:58:24;7.75;;;6.88;;
14021;SDS011;7086;48.116;11.580;2022-08-25T04:00:56;5.68;;;5.20;;
14021;SDS011;7086;48.116;11.580;2022-08-25T04:17:32;7.88;;;6.28;;
14021;SDS011;7086;48.116;11.580;2022-08-25T04:20:07;8.05;;;6.85;;
14021;SDS011;7086;48.116;11.580;2022-08-25T04:22:37;6.88;;;6.25;;
14021;SDS011;7086;48.116;11.580;2022-08-25T04:27:45;8.65;;;7.78;;
14021;SDS011;7086;48.116;11.580;2022-08-25T04:30:28;7.72;;;6.97;;
14021;SDS011;7086;48.116;11.580;2022-08-25T04:36:38;7.70;;;6.78;;
14021;SDS011;7086;48.116;11.580;2022-08-25T04:39:08;8.50;;;6.82;;
14021;SDS011;7086;48.116;11.580;2022-08-25T04:41:39;10.88;;;6.90;;
14021;SDS011;7086;48.116;11.580;2022-08-25T04:44:08;9.60;;;8.18;;
14021;SDS011;7086;48.116;11.580;2022-08-25T04:46:50;8.30;;;7.15;;
14021;SDS011;7086;48.116;11.580;2022-08-25T04:49:18;8.95;;;7.80;;
14021;SDS011;7086;48.116;11.580;2022-08-25T04:51:47;7.53;;;6.75;;
14021;SDS011;7086;48.116;11.580;2022-08-25T04:54:15;9.75;;;7.05;;
14021;SDS011;7086;48.116;11.580;2022-08-25T04:56:46;7.30;;;6.53;;
14021;SDS011;7086;48.116;11.580;2022-08-25T04:59:16;10.15;;;6.60;;
14021;SDS011;7086;48.116;11.580;2022-08-25T05:01:44;6.90;;;6.32;;
14021;SDS011;7086;48.116;11.580;2022-08-25T05:04:13;12.15;;;7.95;;
14021;SDS011;7086;48.116;11.580;2022-08-25T05:06:42;7.03;;;6.32;;
14021;SDS011;7086;48.116;11.580;2022-08-25T05:09:12;8.60;;;6.45;;
14021;SDS011;7086;48.116;11.580;2022-08-25T05:11:39;7.82;;;6.28;;
14021;SDS011;7086;48.116;11.580;2022-08-25T05:14:07;7.38;;;5.78;;
14021;SDS011;7086;48.116;11.580;2022-08-25T05:16:38;8.57;;;5.72;;
14021;SDS011;7086;48.116;11.580;2022-08-25T05:19:05;6.38;;;5.60;;
14021;SDS011;7086;48.116;11.580;2022-08-25T05:21:33;5.35;;;4.93;;
14021;SDS011;7086;48.116;11.580;2022-08-25T05:24:03;6.80;;;5.88;;
14021;SDS011;7086;48.116;11.580;2022-08-25T05:26:33;5.70;;;5.15;;
14021;SDS011;7086;48.116;11.580;2022-08-25T05:29:04;6.30;;;5.57;;
14021;SDS011;7086;48.116;11.580;2022-08-25T05:31:35;5.93;;;5.35;;
14021;SDS011;7086;48.116;11.580;2022-08-25T05:34:13;6.40;;;5.75;;
14021;SDS011;7086;48.116;11.580;2022-08-25T05:36:41;10.93;;;5.38;;
14021;SDS011;7086;48.116;11.580;2022-08-25T05:39:09;8.88;;;6.70;;
14021;SDS011;7086;48.116;11.580;2022-08-25T05:41:38;6.28;;;5.68;;
14021;SDS011;7086;48.116;11.580;2022-08-25T05:44:06;6.80;;;5.20;;
14021;SDS011;7086;48.116;11.580;2022-08-25T05:46:36;6.28;;;5.72;;
14021;SDS011;7086;48.116;11.580;2022-08-25T05:49:04;8.30;;;5.80;;
14021;SDS011;7086;48.116;11.580;2022-08-25T05:51:47;5.40;;;4.95;;
14021;SDS011;7086;48.116;11.580;2022-08-25T05:54:15;7.22;;;6.10;;
14021;SDS011;7086;48.116;11.580;2022-08-25T05:56:45;6.88;;;6.20;;
14021;SDS011;7086;48.116;11.580;2022-08-25T05:59:13;8.10;;;6.43;;
14021;SDS011;7086;48.116;11.580;2022-08-25T06:01:42;7.15;;;6.65;;
14021;SDS011;7086;48.116;11.580;2022-08-25T06:04:27;7.63;;;6.50;;
14021;SDS011;7086;48.116;11.580;2022-08-25T06:06:56;7.40;;;6.70;;
14021;SDS011;7086;48.116;11.580;2022-08-25T06:09:24;7.47;;;6.20;;
14021;SDS011;7086;48.116;11.580;2022-08-25T06:11:54;7.50;;;6.80;;
14021;SDS011;7086;48.116;11.580;2022-08-25T06:14:22;9.20;;;7.20;;
14021;SDS011;7086;48.116;11.580;2022-08-25T06:16:51;6.78;;;6.28;;
14021;SDS011;7086;48.116;11.580;2022-08-25T06:19:19;7.28;;;6.57;;
14021;SDS011;7086;48.116;11.580;2022-08-25T06:21:51;7.10;;;6.50;;
14021;SDS011;7086;48.116;11.580;2022-08-25T06:24:22;7.50;;;6.80;;
14021;SDS011;7086;48.116;11.580;2022-08-25T06:26:51;9.50;;;7.25;;
14021;SDS011;7086;48.116;11.580;2022-08-25T06:29:22;7.00;;;6.35;;
14021;SDS011;7086;48.116;11.580;2022-08-25T06:31:50;7.40;;;6.78;;
14021;SDS011;7086;48.116;11.580;2022-08-25T06:34:19;7.05;;;6.05;;
14021;SDS011;7086;48.116;11.580;2022-08-25T06:36:46;6.60;;;6.00;;
14021;SDS011;7086;48.116;11.580;2022-08-25T06:39:15;7.13;;;5.10;;
14021;SDS011;7086;48.116;11.580;2022-08-25T06:41:43;6.13;;;5.55;;
14021;SDS011;7086;48.116;11.580;2022-08-25T06:44:12;5.57;;;5.07;;
14021;SDS011;7086;48.116;11.580;2022-08-25T06:46:40;5.30;;;4.90;;
14021;SDS011;7086;48.116;11.580;2022-08-25T06:49:08;5.07;;;4.72;;
14021;SDS011;7086;48.116;11.580;2022-08-25T06:51:36;5.55;;;5.15;;
14021;SDS011;7086;48.116;11.580;2022-08-25T06:54:06;4.43;;;4.18;;
14021;SDS011;7086;48.116;11.580;2022-08-25T06:56:38;4.75;;;4.35;;
14021;SDS011;7086;48.116;11.580;2022-08-25T06:59:07;5.07;;;4.53;;
14021;SDS011;7086;48.116;11.580;2022-08-25T07:01:38;4.75;;;4.32;;
14021;SDS011;7086;48.116;11.580;2022-08-25T07:04:06;4.90;;;4.57;;
14021;SDS011;7086;48.116;11.580;2022-08-25T07:06:36;4.97;;;4.50;;
14021;SDS011;7086;48.116;11.580;2022-08-25T07:09:05;5.72;;;4.00;;
14021;SDS011;7086;48.116;11.580;2022-08-25T07:11:35;4.22;;;3.83;;
14021;SDS011;7086;48.116;11.580;2022-08-25T07:14:03;3.67;;;3.47;;
14021;SDS011;7086;48.116;11.580;2022-08-25T07:16:38;3.72;;;3.42;;
14021;SDS011;7086;48.116;11.580;2022-08-25T07:19:07;3.83;;;3.63;;
14021;SDS011;7086;48.116;11.580;2022-08-25T07:21:39;3.20;;;3.10;;
14021;SDS011;7086;48.116;11.580;2022-08-25T07:24:11;6.50;;;3.13;;
14021;SDS011;7086;48.116;11.580;2022-08-25T07:26:46;3.38;;;3.20;;
14021;SDS011;7086;48.116;11.580;2022-08-25T07:29:15;4.20;;;3.80;;
14021;SDS011;7086;48.116;11.580;2022-08-25T07:31:48;3.78;;;3.20;;
14021;SDS011;7086;48.116;11.580;2022-08-25T07:34:17;3.53;;;3.33;;
14021;SDS011;7086;48.116;11.580;2022-08-25T07:37:03;3.08;;;2.88;;
14021;SDS011;7086;48.116;11.580;2022-08-25T07:39:36;3.10;;;2.90;;
14021;SDS011;7086;48.116;11.580;2022-08-25T07:42:18;3.15;;;2.95;;
14021;SDS011;7086;48.116;11.580;2022-08-25T07:44:46;3.10;;;3.00;;
14021;SDS011;7086;48.116;11.580;2022-08-25T07:50:29;3.25;;;3.05;;
14021;SDS011;7086;48.116;11.580;2022-08-25T07:52:58;3.13;;;3.03;;
14021;SDS011;7086;48.116;11.580;2022-08-25T07:55:27;4.00;;;3.75;;
14021;SDS011;7086;48.116;11.580;2022-08-25T07:58:03;3.70;;;3.40;;
14021;SDS011;7086;48.116;11.580;2022-08-25T08:00:33;3.55;;;3.35;;
14021;SDS011;7086;48.116;11.580;2022-08-25T08:03:08;3.40;;;3.20;;
14021;SDS011;7086;48.116;11.580;2022-08-25T08:05:38;3.60;;;3.30;;
14021;SDS011;7086;48.116;11.580;2022-08-25T08:08:07;4.18;;;3.88;;
14021;SDS011;7086;48.116;11.580;2022-08-25T08:10:37;3.63;;;3.42;;
14021;SDS011;7086;48.116;11.580;2022-08-25T08:13:17;7.18;;;3.92;;
14021;SDS011;7086;48.116;11.580;2022-08-25T08:15:47;4.13;;;3.72;;
14021;SDS011;7086;48.116;11.580;2022-08-25T08:18:19;3.75;;;3.45;;
14021;SDS011;7086;48.116;11.580;2022-08-25T08:20:48;4.00;;;3.70;;
14021;SDS011;7086;48.116;11.580;2022-08-25T08:23:17;3.67;;;3.47;;
14021;SDS011;7086;48.116;11.580;2022-08-25T08:25:52;3.13;;;3.00;;
14021;SDS011;7086;48.116;11.580;2022-08-25T08:28:21;3.58;;;3.38;;
14021;SDS011;7086;48.116;11.580;2022-08-25T08:31:03;3.60;;;3.40;;
14021;SDS011;7086;48.116;11.580;2022-08-25T08:37:16;5.13;;;2.83;;
14021;SDS011;7086;48.116;11.580;2022-08-25T08:39:46;5.53;;;3.28;;
14021;SDS011;7086;48.116;11.580;2022-08-25T08:42:35;3.10;;;2.90;;
14021;SDS011;7086;48.116;11.580;2022-08-25T08:45:21;2.75;;;2.55;;
14021;SDS011;7086;48.116;11.580;2022-08-25T08:51:34;2.75;;;2.65;;
14021;SDS011;7086;48.116;11.580;2022-08-25T08:54:33;2.60;;;2.47;;
14021;SDS011;7086;48.116;11.580;2022-08-25T08:57:07;2.63;;;2.47;;
14021;SDS011;7086;48.116;11.580;2022-08-25T08:59:45;2.95;;;2.75;;
14021;SDS011;7086;48.116;11.580;2022-08-25T09:02:24;2.80;;;2.60;;
14021;SDS011;7086;48.116;11.580;2022-08-25T09:05:17;3.13;;;2.83;;
14021;SDS011;7086;48.116;11.580;2022-08-25T09:07:49;2.45;;;2.35;;
14021;SDS011;7086;48.116;11.580;2022-08-25T09:10:27;2.10;;;2.00;;
14021;SDS011;7086;48.116;11.580;2022-08-25T09:13:12;2.75;;;2.65;;
14021;SDS011;7086;48.116;11.580;2022-08-25T09:16:09;2.70;;;2.60;;
14021;SDS011;7086;48.116;11.580;2022-08-25T09:19:08;2.53;;;2.15;;
14021;SDS011;7086;48.116;11.580;2022-08-25T09:22:10;3.00;;;2.80;;
14021;SDS011;7086;48.116;11.580;2022-08-25T09:25:06;3.50;;;3.30;;
14021;SDS011;7086;48.116;11.580;2022-08-25T09:28:05;3.05;;;2.83;;
14021;SDS011;7086;48.116;11.580;2022-08-25T09:30:50;2.67;;;2.45;;
14021;SDS011;7086;48.116;11.580;2022-08-25T09:33:31;2.90;;;2.78;;
14021;SDS011;7086;48.116;11.580;2022-08-25T09:36:14;3.03;;;2.83;;
14021;SDS011;7086;48.116;11.580;2022-08-25T09:38:42;3.22;;;3.05;;
14021;SDS011;7086;48.116;11.580;2022-08-25T09:41:39;2.65;;;2.45;;
14021;SDS011;7086;48.116;11.580;2022-08-25T09:47:21;3.72;;;3.45;;
14021;SDS011;7086;48.116;11.580;2022-08-25T09:50:06;2.65;;;2.45;;
14021;SDS011;7086;48.116;11.580;2022-08-25T09:52:50;2.38;;;2.28;;
14021;SDS011;7086;48.116;11.580;2022-08-25T09:55:32;3.00;;;2.80;;
14021;SDS011;7086;48.116;11.580;2022-08-25T09:58:13;3.58;;;2.40;;
14021;SDS011;7086;48.116;11.580;2022-08-25T10:03:57;3.03;;;2.85;;
14021;SDS011;7086;48.116;11.580;2022-08-25T10:09:09;2.53;;;2.42;;
14021;SDS011;7086;48.116;11.580;2022-08-25T10:11:53;2.42;;;2.30;;
14021;SDS011;7086;48.116;11.580;2022-08-25T10:14:26;2.40;;;2.20;;
14021;SDS011;7086;48.116;11.580;2022-08-25T10:20:12;3.30;;;3.05;;
14021;SDS011;7086;48.116;11.580;2022-08-25T10:22:48;2.85;;;2.20;;
14021;SDS011;7086;48.116;11.580;2022-08-25T10:25:20;2.55;;;2.45;;
14021;SDS011;7086;48.116;11.580;2022-08-25T10:28:03;3.42;;;2.58;;
14021;SDS011;7086;48.116;11.580;2022-08-25T10:30:45;2.90;;;2.33;;
14021;SDS011;7086;48.116;11.580;2022-08-25T10:33:27;2.72;;;2.53;;
14021;SDS011;7086;48.116;11.580;2022-08-25T10:36:11;2.70;;;2.50;;
14021;SDS011;7086;48.116;11.580;2022-08-25T10:38:50;2.60;;;2.40;;
14021;SDS011;7086;48.116;11.580;2022-08-25T10:41:30;3.95;;;2.50;;
14021;SDS011;7086;48.116;11.580;2022-08-25T10:44:47;2.50;;;2.40;;
14021;SDS011;7086;48.116;11.580;2022-08-25T10:48:01;2.70;;;2.55;;
14021;SDS011;7086;48.116;11.580;2022-08-25T10:54:47;2.55;;;2.35;;
14021;SDS011;7086;48.116;11.580;2022-08-25T10:57:35;2.47;;;2.38;;
14021;SDS011;7086;48.116;11.580;2022-08-25T11:00:19;2.75;;;2.55;;
14021;SDS011;7086;48.116;11.580;2022-08-25T11:03:03;3.00;;;2.80;;
14021;SDS011;7086;48.116;11.580;2022-08-25T11:05:58;3.67;;;2.85;;
14021;SDS011;7086;48.116;11.580;2022-08-25T11:08:33;2.78;;;2.58;;
14021;SDS011;7086;48.116;11.580;2022-08-25T11:14:27;2.58;;;2.45;;
14021;SDS011;7086;48.116;11.580;2022-08-25T11:17:05;2.42;;;2.30;;
14021;SDS011;7086;48.116;11.580;2022-08-25T11:19:56;3.40;;;2.38;;
14021;SDS011;7086;48.116;11.580;2022-08-25T11:22:46;2.42;;;2.33;;
14021;SDS011;7086;48.116;11.580;2022-08-25T11:25:41;4.72;;;3.05;;
14021;SDS011;7086;48.116;11.580;2022-08-25T11:28:34;3.17;;;2.90;;
14021;SDS011;7086;48.116;11.580;2022-08-25T11:31:28;3.70;;;2.67;;
14021;SDS011;7086;48.116;11.580;2022-08-25T11:34:10;2.90;;;2.78;;
14021;SDS011;7086;48.116;11.580;2022-08-25T11:36:48;3.20;;;2.70;;
14021;SDS011;7086;48.116;11.580;2022-08-25T11:39:29;3.65;;;3.35;;
14021;SDS011;7086;48.116;11.580;2022-08-25T11:42:35;3.42;;;3.13;;
14021;SDS011;7086;48.116;11.580;2022-08-25T11:48:43;3.13;;;2.92;;
14021;SDS011;7086;48.116;11.580;2022-08-25T11:51:29;4.13;;;3.83;;
14021;SDS011;7086;48.116;11.580;2022-08-25T11:54:12;3.03;;;2.92;;
14021;SDS011;7086;48.116;11.580;2022-08-25T11:57:01;3.17;;;3.03;;
14021;SDS011;7086;48.116;11.580;2022-08-25T12:02:45;3.75;;;3.30;;
14021;SDS011;7086;48.116;11.580;2022-08-25T12:08:53;3.00;;;2.80;;
14021;SDS011;7086;48.116;11.580;2022-08-25T12:11:48;4.05;;;3.65;;
14021;SDS011;7086;48.116;11.580;2022-08-25T12:14:41;7.05;;;3.67;;
14021;SDS011;7086;48.116;11.580;2022-08-25T12:17:36;6.78;;;4.35;;
14021;SDS011;7086;48.116;11.580;2022-08-25T12:20:09;3.47;;;3.17;;
14021;SDS011;7086;48.116;11.580;2022-08-25T12:22:52;3.92;;;3.42;;
14021;SDS011;7086;48.116;11.580;2022-08-25T12:25:33;3.20;;;3.00;;
14021;SDS011;7086;48.116;11.580;2022-08-25T12:28:25;4.15;;;3.85;;
14021;SDS011;7086;48.116;11.580;2022-08-25T12:31:40;3.78;;;3.53;;
14021;SDS011;7086;48.116;11.580;2022-08-25T12:34:51;4.45;;;3.10;;
14021;SDS011;7086;48.116;11.580;2022-08-25T12:37:54;3.08;;;2.88;;
14021;SDS011;7086;48.116;11.580;2022-08-25T12:43:49;3.75;;;3.47;;
14021;SDS011;7086;48.116;11.580;2022-08-25T12:46:32;3.75;;;3.45;;
14021;SDS011;7086;48.116;11.580;2022-08-25T12:49:10;3.58;;;3.28;;
14021;SDS011;7086;48.116;11.580;2022-08-25T12:51:57;3.65;;;3.35;;
14021;SDS011;7086;48.116;11.580;2022-08-25T12:54:41;4.95;;;3.63;;
14021;SDS011;7086;48.116;11.580;2022-08-25T13:00:13;4.25;;;3.85;;
14021;SDS011;7086;48.116;11.580;2022-08-25T13:03:08;4.85;;;4.25;;
14021;SDS011;7086;48.116;11.580;2022-08-25T13:12:49;5.80;;;3.67;;
14021;SDS011;7086;48.116;11.580;2022-08-25T13:15:43;6.70;;;4.70;;
14021;SDS011;7086;48.116;11.580;2022-08-25T13:18:17;6.18;;;4.75;;
14021;SDS011;7086;48.116;11.580;2022-08-25T13:20:48;6.28;;;4.80;;
14021;SDS011;7086;48.116;11.580;2022-08-25T13:23:33;5.03;;;4.63;;
14021;SDS011;7086;48.116;11.580;2022-08-25T13:26:08;4.40;;;4.00;;
14021;SDS011;7086;48.116;11.580;2022-08-25T13:28:46;5.68;;;3.88;;
14021;SDS011;7086;48.116;11.580;2022-08-25T13:31:35;4.40;;;4.00;;
14021;SDS011;7086;48.116;11.580;2022-08-25T13:34:16;5.20;;;4.25;;
14021;SDS011;7086;48.116;11.580;2022-08-25T13:37:04;4.35;;;3.95;;
14021;SDS011;7086;48.116;11.580;2022-08-25T13:40:06;4.82;;;4.35;;
14021;SDS011;7086;48.116;11.580;2022-08-25T13:42:52;4.97;;;3.50;;
14021;SDS011;7086;48.116;11.580;2022-08-25T13:55:52;5.13;;;4.45;;
14021;SDS011;7086;48.116;11.580;2022-08-25T13:58:25;5.82;;;5.28;;
14021;SDS011;7086;48.116;11.580;2022-08-25T14:01:07;7.60;;;4.68;;
14021;SDS011;7086;48.116;11.580;2022-08-25T14:07:27;4.40;;;4.05;;
14021;SDS011;7086;48.116;11.580;2022-08-25T14:10:00;5.22;;;3.92;;
14021;SDS011;7086;48.116;11.580;2022-08-25T14:12:55;7.82;;;4.25;;
14021;SDS011;7086;48.116;11.580;2022-08-25T14:15:51;5.32;;;4.93;;
14021;SDS011;7086;48.116;11.580;2022-08-25T14:18:33;9.85;;;5.25;;
14021;SDS011;7086;48.116;11.580;2022-08-25T14:21:06;7.63;;;5.18;;
14021;SDS011;7086;48.116;11.580;2022-08-25T14:23:37;4.65;;;4.05;;
14021;SDS011;7086;48.116;11.580;2022-08-25T14:26:23;6.63;;;4.20;;
14021;SDS011;7086;48.116;11.580;2022-08-25T14:29:08;5.28;;;4.07;;
14021;SDS011;7086;48.116;11.580;2022-08-25T14:31:49;5.22;;;4.20;;
14021;SDS011;7086;48.116;11.580;2022-08-25T14:34:19;7.63;;;5.30;;
14021;SDS011;7086;48.116;11.580;2022-08-25T14:36:52;8.27;;;5.55;;
14021;SDS011;7086;48.116;11.580;2022-08-25T14:39:33;6.47;;;4.63;;
14021;SDS011;7086;48.116;11.580;2022-08-25T14:42:04;8.32;;;5.75;;
14021;SDS011;7086;48.116;11.580;2022-08-25T14:44:41;8.68;;;5.93;;
14021;SDS011;7086;48.116;11.580;2022-08-25T14:47:10;10.02;;;6.80;;
14021;SDS011;7086;48.116;11.580;2022-08-25T14:49:52;8.38;;;7.57;;
14021;SDS011;7086;48.116;11.580;2022-08-25T14:52:22;9.55;;;5.35;;
14021;SDS011;7086;48.116;11.580;2022-08-25T14:54:56;6.00;;;5.38;;
14021;SDS011;7086;48.116;11.580;2022-08-25T14:57:38;5.22;;;4.82;;
14021;SDS011;7086;48.116;11.580;2022-08-25T15:03:29;5.05;;;4.28;;
14021;SDS011;7086;48.116;11.580;2022-08-25T15:06:16;5.53;;;4.78;;
14021;SDS011;7086;48.116;11.580;2022-08-25T15:09:19;5.63;;;5.10;;
14021;SDS011;7086;48.116;11.580;2022-08-25T15:12:23;5.20;;;3.90;;
14021;SDS011;7086;48.116;11.580;2022-08-25T15:15:05;9.82;;;4.43;;
14021;SDS011;7086;48.116;11.580;2022-08-25T15:20:40;8.10;;;5.05;;
14021;SDS011;7086;48.116;11.580;2022-08-25T15:23:23;7.63;;;4.45;;
14021;SDS011;7086;48.116;11.580;2022-08-25T15:31:11;8.98;;;5.50;;
14021;SDS011;7086;48.116;11.580;2022-08-25T15:33:43;10.90;;;6.88;;
14021;SDS011;7086;48.116;11.580;2022-08-25T15:36:14;10.23;;;6.93;;
14021;SDS011;7086;48.116;11.580;2022-08-25T15:38:49;9.32;;;6.97;;
14021;SDS011;7086;48.116;11.580;2022-08-25T15:41:32;11.02;;;6.28;;
14021;SDS011;7086;48.116;11.580;2022-08-25T15:44:15;11.95;;;6.03;;
14021;SDS011;7086;48.116;11.580;2022-08-25T15:46:51;11.50;;;5.00;;
14021;SDS011;7086;48.116;11.580;2022-08-25T15:59:12;12.80;;;7.65;;
14021;SDS011;7086;48.116;11.580;2022-08-25T16:01:54;13.20;;;6.55;;
14021;SDS011;7086;48.116;11.580;2022-08-25T16:04:38;11.95;;;6.13;;
14021;SDS011;7086;48.116;11.580;2022-08-25T16:07:20;11.52;;;6.18;;
14021;SDS011;7086;48.116;11.580;2022-08-25T16:09:58;8.50;;;4.60;;
14021;SDS011;7086;48.116;11.580;2022-08-25T16:12:44;7.68;;;5.22;;
14021;SDS011;7086;48.116;11.580;2022-08-25T16:15:26;9.23;;;4.85;;
14021;SDS011;7086;48.116;11.580;2022-08-25T16:20:41;10.18;;;5.10;;
14021;SDS011;7086;48.116;11.580;2022-08-25T16:23:45;9.90;;;5.10;;
14021;SDS011;7086;48.116;11.580;2022-08-25T16:26:28;8.60;;;4.95;;
14021;SDS011;7086;48.116;11.580;2022-08-25T19:52:00;6.88;;;6.28;;
14021;SDS011;7086;48.116;11.580;2022-08-25T19:54:47;14.43;;;5.85;;
14021;SDS011;7086;48.116;11.580;2022-08-25T19:57:33;15.88;;;6.53;;
14021;SDS011;7086;48.116;11.580;2022-08-25T20:00:19;9.93;;;6.57;;
14021;SDS011;7086;48.116;11.580;2022-08-25T20:02:53;9.98;;;6.75;;
14021;SDS011;7086;48.116;11.580;2022-08-25T20:05:38;9.30;;;5.70;;
14021;SDS011;7086;48.116;11.580;2022-08-25T20:08:10;11.07;;;6.85;;
14021;SDS011;7086;48.116;11.580;2022-08-25T20:10:38;7.68;;;5.55;;
14021;SDS011;7086;48.116;11.580;2022-08-25T20:13:07;5.97;;;5.38;;
14021;SDS011;7086;48.116;11.580;2022-08-25T20:15:36;7.55;;;6.70;;
14021;SDS011;7086;48.116;11.580;2022-08-25T20:18:04;15.13;;;10.02;;
14021;SDS011;7086;48.116;11.580;2022-08-25T20:20:32;13.52;;;7.63;;
14021;SDS011;7086;48.116;11.580;2022-08-25T20:23:02;9.55;;;6.43;;
14021;SDS011;7086;48.116;11.580;2022-08-25T20:28:54;9.48;;;6.35;;
14021;SDS011;7086;48.116;11.580;2022-08-25T20:31:24;13.10;;;6.05;;
14021;SDS011;7086;48.116;11.580;2022-08-25T20:33:53;6.78;;;5.90;;
14021;SDS011;7086;48.116;11.580;2022-08-25T20:36:23;7.53;;;5.70;;
14021;SDS011;7086;48.116;11.580;2022-08-25T20:39:02;8.02;;;5.85;;
14021;SDS011;7086;48.116;11.580;2022-08-25T20:41:32;8.90;;;5.90;;
14021;SDS011;7086;48.116;11.580;2022-08-25T20:44:13;5.88;;;5.38;;
14021;SDS011;7086;48.116;11.580;2022-08-25T20:46:45;14.77;;;9.27;;
14021;SDS011;7086;48.116;11.580;2022-08-25T20:49:13;18.17;;;13.70;;
14021;SDS011;7086;48.116;11.580;2022-08-25T20:51:44;8.77;;;7.75;;
14021;SDS011;7086;48.116;11.580;2022-08-25T20:54:13;10.45;;;7.63;;
14021;SDS011;7086;48.116;11.580;2022-08-25T20:56:48;9.25;;;7.28;;
14021;SDS011;7086;48.116;11.580;2022-08-25T20:59:18;7.22;;;6.53;;
14021;SDS011;7086;48.116;11.580;2022-08-25T21:01:50;8.27;;;6.38;;
14021;SDS011;7086;48.116;11.580;2022-08-25T21:04:21;7.80;;;6.68;;
14021;SDS011;7086;48.116;11.580;2022-08-25T21:06:56;9.57;;;5.82;;
14021;SDS011;7086;48.116;11.580;2022-08-25T21:09:29;6.70;;;5.40;;
14021;SDS011;7086;48.116;11.580;2022-08-25T21:12:11;9.85;;;6.32;;
14021;SDS011;7086;48.116;11.580;2022-08-25T21:14:52;8.15;;;6.13;;